sensor_id;sensor_type;location;lat;lon;timestamp;pressure;altitude;pressure_sealevel;temperature;humidity
19600;BME280;9947;57.722;12.012;2023-03-15T00:01:16;99172.91;;;0.30;100.00
19600;BME280;9947;57.722;12.012;2023-03-15T00:03:51;99172.91;;;0.30;100.00
19600;BME280;9947;57.722;12.012;2023-03-15T00:06:21;99176.16;;;0.35;100.00
19600;BME280;9947;57.722;12.012;2023-03-15T00:08:48;99178.53;;;0.40;100.00
19600;BME280;9947;57.722;12.012;2023-03-15T00:11:17;99181.94;;;0.42;100.00
19600;BME280;9947;57.722;12.012;2023-03-15T00:13:45;99181.66;;;0.46;100.00
19600;BME280;9947;57.722;12.012;2023-03-15T00:16:12;99183.47;;;0.46;100.00
19600;BME280;9947;57.722;12.012;2023-03-15T00:18:42;99188.69;;;0.47;100.00
19600;BME280;9947;57.722;12.012;2023-03-15T00:21:09;99186.91;;;0.48;100.00
19600;BME280;9947;57.722;12.012;2023-03-15T00:23:38;99196.28;;;0.39;100.00
19600;BME280;9947;57.722;12.012;2023-03-15T00:26:05;99189.06;;;0.41;100.00
19600;BME280;9947;57.722;12.012;2023-03-15T00:28:33;99192.19;;;0.34;100.00
19600;BME280;9947;57.722;12.012;2023-03-15T00:31:04;99209.84;;;0.35;100.00
19600;BME280;9947;57.722;12.012;2023-03-15T00:33:32;99205.31;;;0.37;100.00
19600;BME280;9947;57.722;12.012;2023-03-15T00:36:05;99199.22;;;0.35;100.00
19600;BME280;9947;57.722;12.012;2023-03-15T00:38:33;99209.19;;;0.31;100.00
19600;BME280;9947;57.722;12.012;2023-03-15T00:41:09;99209.78;;;0.20;100.00
19600;BME280;9947;57.722;12.012;2023-03-15T00:43:36;99215.66;;;0.11;100.00
19600;BME280;9947;57.722;12.012;2023-03-15T00:46:04;99219.38;;;-0.07;100.00
19600;BME280;9947;57.722;12.012;2023-03-15T00:48:31;99224.59;;;-0.06;100.00
19600;BME280;9947;57.722;12.012;2023-03-15T00:51:07;99230.44;;;0.01;100.00
19600;BME280;9947;57.722;12.012;2023-03-15T00:53:35;99226.97;;;-0.01;100.00
19600;BME280;9947;57.722;12.012;2023-03-15T00:56:03;99231.97;;;0.05;100.00
19600;BME280;9947;57.722;12.012;2023-03-15T00:58:32;99234.53;;;0.07;100.00
19600;BME280;9947;57.722;12.012;2023-03-15T01:00:59;99241.28;;;0.12;100.00
19600;BME280;9947;57.722;12.012;2023-03-15T01:03:26;99236.91;;;0.11;100.00
19600;BME280;9947;57.722;12.012;2023-03-15T01:05:53;99248.50;;;0.10;100.00
19600;BME280;9947;57.722;12.012;2023-03-15T01:08:26;99245.38;;;0.18;100.00
19600;BME280;9947;57.722;12.012;2023-03-15T01:10:53;99243.75;;;0.15;100.00
19600;BME280;9947;57.722;12.012;2023-03-15T01:13:20;99254.13;;;0.20;100.00
19600;BME280;9947;57.722;12.012;2023-03-15T01:15:49;99254.13;;;0.20;100.00
19600;BME280;9947;57.722;12.012;2023-03-15T01:18:16;99252.22;;;0.22;100.00
19600;BME280;9947;57.722;12.012;2023-03-15T01:20:43;99249.91;;;0.32;100.00
19600;BME280;9947;57.722;12.012;2023-03-15T01:23:10;99254.66;;;0.26;100.00
19600;BME280;9947;57.722;12.012;2023-03-15T01:25:38;99254.03;;;0.21;100.00
19600;BME280;9947;57.722;12.012;2023-03-15T01:28:06;99262.63;;;0.26;100.00
19600;BME280;9947;57.722;12.012;2023-03-15T01:30:33;99257.31;;;0.26;100.00
19600;BME280;9947;57.722;12.012;2023-03-15T01:33:02;99264.16;;;0.30;100.00
19600;BME280;9947;57.722;12.012;2023-03-15T01:35:29;99268.00;;;0.25;100.00
19600;BME280;9947;57.722;12.012;2023-03-15T01:37:56;99261.69;;;0.42;100.00
19600;BME280;9947;57.722;12.012;2023-03-15T01:40:39;99271.66;;;0.38;100.00
19600;BME280;9947;57.722;12.012;2023-03-15T01:43:18;99280.41;;;0.40;100.00
19600;BME280;9947;57.722;12.012;2023-03-15T01:45:58;99275.28;;;0.37;100.00
19600;BME280;9947;57.722;12.012;2023-03-15T01:48:34;99283.59;;;0.31;100.00
19600;BME280;9947;57.722;12.012;2023-03-15T01:51:07;99287.44;;;0.25;100.00
19600;BME280;9947;57.722;12.012;2023-03-15T01:53:37;99288.16;;;0.13;100.00
19600;BME280;9947;57.722;12.012;2023-03-15T01:56:06;99294.88;;;0.05;100.00
19600;BME280;9947;57.722;12.012;2023-03-15T01:58:45;99282.00;;;-0.03;100.00
19600;BME280;9947;57.722;12.012;2023-03-15T02:01:14;99281.59;;;-0.11;100.00
19600;BME280;9947;57.722;12.012;2023-03-15T02:03:51;99294.88;;;-0.11;100.00
19600;BME280;9947;57.722;12.012;2023-03-15T02:06:20;99298.63;;;-0.15;100.00
19600;BME280;9947;57.722;12.012;2023-03-15T02:08:51;99303.88;;;-0.14;100.00
19600;BME280;9947;57.722;12.012;2023-03-15T02:11:20;99310.88;;;-0.13;100.00
19600;BME280;9947;57.722;12.012;2023-03-15T02:13:49;99315.25;;;-0.12;100.00
19600;BME280;9947;57.722;12.012;2023-03-15T02:16:17;99313.63;;;-0.14;100.00
19600;BME280;9947;57.722;12.012;2023-03-15T02:18:46;99311.06;;;-0.16;100.00
19600;BME280;9947;57.722;12.012;2023-03-15T02:21:20;99323.13;;;-0.10;100.00
19600;BME280;9947;57.722;12.012;2023-03-15T02:23:59;99319.53;;;-0.09;100.00
19600;BME280;9947;57.722;12.012;2023-03-15T02:26:34;99324.84;;;-0.09;100.00
19600;BME280;9947;57.722;12.012;2023-03-15T02:29:04;99323.31;;;-0.13;100.00
19600;BME280;9947;57.722;12.012;2023-03-15T02:31:33;99327.78;;;-0.14;100.00
19600;BME280;9947;57.722;12.012;2023-03-15T02:34:03;99329.66;;;-0.16;100.00
19600;BME280;9947;57.722;12.012;2023-03-15T02:36:33;99331.28;;;-0.13;100.00
19600;BME280;9947;57.722;12.012;2023-03-15T02:39:11;99334.63;;;-0.10;100.00
19600;BME280;9947;57.722;12.012;2023-03-15T02:41:40;99338.31;;;-0.12;100.00
19600;BME280;9947;57.722;12.012;2023-03-15T02:44:11;99342.09;;;-0.16;100.00
19600;BME280;9947;57.722;12.012;2023-03-15T02:46:40;99338.66;;;-0.18;100.00
19600;BME280;9947;57.722;12.012;2023-03-15T02:49:09;99347.72;;;-0.07;100.00
19600;BME280;9947;57.722;12.012;2023-03-15T02:51:37;99343.19;;;-0.20;100.00
19600;BME280;9947;57.722;12.012;2023-03-15T02:54:04;99348.94;;;-0.12;100.00
19600;BME280;9947;57.722;12.012;2023-03-15T02:56:37;99360.94;;;-0.21;100.00
19600;BME280;9947;57.722;12.012;2023-03-15T02:59:04;99354.84;;;-0.23;100.00
19600;BME280;9947;57.722;12.012;2023-03-15T03:01:33;99363.84;;;-0.25;100.00
19600;BME280;9947;57.722;12.012;2023-03-15T03:04:02;99362.34;;;-0.31;100.00
19600;BME280;9947;57.722;12.012;2023-03-15T03:06:35;99364.41;;;-0.36;100.00
19600;BME280;9947;57.722;12.012;2023-03-15T03:09:03;99370.41;;;-0.33;100.00
19600;BME280;9947;57.722;12.012;2023-03-15T03:11:32;99362.59;;;-0.36;100.00
19600;BME280;9947;57.722;12.012;2023-03-15T03:13:59;99361.66;;;-0.35;100.00
19600;BME280;9947;57.722;12.012;2023-03-15T03:16:25;99374.34;;;-0.40;100.00
19600;BME280;9947;57.722;12.012;2023-03-15T03:18:54;99378.00;;;-0.42;100.00
19600;BME280;9947;57.722;12.012;2023-03-15T03:21:21;99375.59;;;-0.47;100.00
19600;BME280;9947;57.722;12.012;2023-03-15T03:23:54;99382.97;;;-0.52;100.00
19600;BME280;9947;57.722;12.012;2023-03-15T03:26:21;99384.59;;;-0.49;100.00
19600;BME280;9947;57.722;12.012;2023-03-15T03:28:53;99383.09;;;-0.55;100.00
19600;BME280;9947;57.722;12.012;2023-03-15T03:31:22;99380.09;;;-0.65;100.00
19600;BME280;9947;57.722;12.012;2023-03-15T03:33:50;99394.13;;;-0.63;100.00
19600;BME280;9947;57.722;12.012;2023-03-15T03:36:18;99406.53;;;-0.63;100.00
19600;BME280;9947;57.722;12.012;2023-03-15T03:38:45;99412.88;;;-0.66;100.00
19600;BME280;9947;57.722;12.012;2023-03-15T03:41:13;99419.19;;;-0.68;100.00
19600;BME280;9947;57.722;12.012;2023-03-15T03:43:40;99416.94;;;-0.76;100.00
19600;BME280;9947;57.722;12.012;2023-03-15T03:46:07;99426.47;;;-0.72;100.00
19600;BME280;9947;57.722;12.012;2023-03-15T03:48:37;99424.66;;;-0.71;100.00
19600;BME280;9947;57.722;12.012;2023-03-15T03:51:04;99422.19;;;-0.74;100.00
19600;BME280;9947;57.722;12.012;2023-03-15T03:53:33;99433.47;;;-0.71;100.00
19600;BME280;9947;57.722;12.012;2023-03-15T03:56:05;99434.66;;;-0.76;100.00
19600;BME280;9947;57.722;12.012;2023-03-15T03:58:32;99437.53;;;-0.81;100.00
19600;BME280;9947;57.722;12.012;2023-03-15T04:00:59;99436.13;;;-0.71;100.00
19600;BME280;9947;57.722;12.012;2023-03-15T04:03:26;99440.34;;;-0.67;100.00
19600;BME280;9947;57.722;12.012;2023-03-15T04:05:53;99435.97;;;-0.68;100.00
19600;BME280;9947;57.722;12.012;2023-03-15T04:08:21;99440.88;;;-0.60;100.00
19600;BME280;9947;57.722;12.012;2023-03-15T04:10:51;99448.16;;;-0.64;100.00
19600;BME280;9947;57.722;12.012;2023-03-15T04:13:19;99455.16;;;-0.63;100.00
19600;BME280;9947;57.722;12.012;2023-03-15T04:15:46;99453.53;;;-0.65;100.00
19600;BME280;9947;57.722;12.012;2023-03-15T04:18:13;99454.38;;;-0.65;100.00
19600;BME280;9947;57.722;12.012;2023-03-15T04:20:41;99460.34;;;-0.77;100.00
19600;BME280;9947;57.722;12.012;2023-03-15T04:23:11;99471.06;;;-0.80;100.00
19600;BME280;9947;57.722;12.012;2023-03-15T04:25:47;99464.91;;;-0.80;100.00
19600;BME280;9947;57.722;12.012;2023-03-15T04:28:19;99468.97;;;-0.90;100.00
19600;BME280;9947;57.722;12.012;2023-03-15T04:30:48;99472.78;;;-0.79;100.00
19600;BME280;9947;57.722;12.012;2023-03-15T04:33:16;99475.41;;;-0.77;100.00
19600;BME280;9947;57.722;12.012;2023-03-15T04:35:48;99480.13;;;-0.84;100.00
19600;BME280;9947;57.722;12.012;2023-03-15T04:38:17;99479.19;;;-1.00;100.00
19600;BME280;9947;57.722;12.012;2023-03-15T04:40:57;99478.78;;;-1.10;100.00
19600;BME280;9947;57.722;12.012;2023-03-15T04:43:26;99485.94;;;-1.12;100.00
19600;BME280;9947;57.722;12.012;2023-03-15T04:45:53;99488.13;;;-1.20;100.00
19600;BME280;9947;57.722;12.012;2023-03-15T04:48:20;99492.41;;;-1.17;100.00
19600;BME280;9947;57.722;12.012;2023-03-15T04:50:47;99498.28;;;-1.11;100.00
19600;BME280;9947;57.722;12.012;2023-03-15T04:53:14;99486.16;;;-0.98;100.00
19600;BME280;9947;57.722;12.012;2023-03-15T04:55:41;99495.38;;;-1.06;100.00
19600;BME280;9947;57.722;12.012;2023-03-15T04:58:08;99500.69;;;-1.06;100.00
19600;BME280;9947;57.722;12.012;2023-03-15T05:00:38;99508.47;;;-1.02;100.00
19600;BME280;9947;57.722;12.012;2023-03-15T05:03:06;99503.44;;;-1.08;100.00
19600;BME280;9947;57.722;12.012;2023-03-15T05:05:33;99514.56;;;-1.18;100.00
19600;BME280;9947;57.722;12.012;2023-03-15T05:07:59;99505.81;;;-1.02;100.00
19600;BME280;9947;57.722;12.012;2023-03-15T05:10:26;99509.88;;;-1.13;100.00
19600;BME280;9947;57.722;12.012;2023-03-15T05:13:00;99511.59;;;-1.30;100.00
19600;BME280;9947;57.722;12.012;2023-03-15T05:15:27;99522.22;;;-1.31;100.00
19600;BME280;9947;57.722;12.012;2023-03-15T05:17:56;99518.78;;;-1.33;100.00
19600;BME280;9947;57.722;12.012;2023-03-15T05:20:23;99526.91;;;-1.36;100.00
19600;BME280;9947;57.722;12.012;2023-03-15T05:22:56;99528.63;;;-1.35;100.00
19600;BME280;9947;57.722;12.012;2023-03-15T05:25:24;99526.34;;;-1.24;100.00
19600;BME280;9947;57.722;12.012;2023-03-15T05:27:57;99534.63;;;-1.13;100.00
19600;BME280;9947;57.722;12.012;2023-03-15T05:30:24;99535.47;;;-1.12;100.00
19600;BME280;9947;57.722;12.012;2023-03-15T05:32:51;99536.56;;;-1.16;100.00
19600;BME280;9947;57.722;12.012;2023-03-15T05:35:19;99535.31;;;-1.09;100.00
19600;BME280;9947;57.722;12.012;2023-03-15T05:37:48;99549.28;;;-1.06;100.00
19600;BME280;9947;57.722;12.012;2023-03-15T05:40:15;99551.88;;;-1.04;100.00
19600;BME280;9947;57.722;12.012;2023-03-15T05:42:42;99551.28;;;-0.92;100.00
19600;BME280;9947;57.722;12.012;2023-03-15T05:45:10;99560.94;;;-0.72;100.00
19600;BME280;9947;57.722;12.012;2023-03-15T05:47:37;99557.50;;;-0.57;100.00
19600;BME280;9947;57.722;12.012;2023-03-15T05:50:06;99562.38;;;-0.48;100.00
19600;BME280;9947;57.722;12.012;2023-03-15T05:52:35;99561.28;;;-0.44;100.00
19600;BME280;9947;57.722;12.012;2023-03-15T05:55:03;99563.31;;;-0.32;100.00
19600;BME280;9947;57.722;12.012;2023-03-15T05:57:30;99574.09;;;-0.17;100.00
19600;BME280;9947;57.722;12.012;2023-03-15T05:59:57;99573.84;;;-0.13;100.00
19600;BME280;9947;57.722;12.012;2023-03-15T06:02:24;99585.88;;;-0.06;100.00
19600;BME280;9947;57.722;12.012;2023-03-15T06:04:56;99589.94;;;0.02;100.00
19600;BME280;9947;57.722;12.012;2023-03-15T06:07:23;99591.09;;;0.13;100.00
19600;BME280;9947;57.722;12.012;2023-03-15T06:09:59;99601.66;;;0.15;100.00
19600;BME280;9947;57.722;12.012;2023-03-15T06:12:26;99601.88;;;0.10;100.00
19600;BME280;9947;57.722;12.012;2023-03-15T06:14:53;99605.16;;;0.15;100.00
19600;BME280;9947;57.722;12.012;2023-03-15T06:17:20;99621.47;;;0.25;100.00
19600;BME280;9947;57.722;12.012;2023-03-15T06:19:47;99607.13;;;0.29;100.00
19600;BME280;9947;57.722;12.012;2023-03-15T06:22:25;99614.69;;;0.37;100.00
19600;BME280;9947;57.722;12.012;2023-03-15T06:24:53;99602.25;;;0.37;100.00
19600;BME280;9947;57.722;12.012;2023-03-15T06:27:24;99605.44;;;0.44;100.00
19600;BME280;9947;57.722;12.012;2023-03-15T06:29:52;99617.78;;;0.45;100.00
19600;BME280;9947;57.722;12.012;2023-03-15T06:32:19;99617.84;;;0.60;100.00
19600;BME280;9947;57.722;12.012;2023-03-15T06:34:46;99631.75;;;0.66;100.00
19600;BME280;9947;57.722;12.012;2023-03-15T06:37:13;99633.44;;;0.67;100.00
19600;BME280;9947;57.722;12.012;2023-03-15T06:39:40;99640.66;;;0.65;100.00
19600;BME280;9947;57.722;12.012;2023-03-15T06:42:09;99654.03;;;0.63;100.00
19600;BME280;9947;57.722;12.012;2023-03-15T06:44:39;99660.31;;;0.78;100.00
19600;BME280;9947;57.722;12.012;2023-03-15T06:47:06;99658.66;;;0.92;100.00
19600;BME280;9947;57.722;12.012;2023-03-15T06:49:36;99669.75;;;1.16;100.00
19600;BME280;9947;57.722;12.012;2023-03-15T06:52:10;99669.31;;;1.24;100.00
19600;BME280;9947;57.722;12.012;2023-03-15T06:54:37;99669.94;;;1.13;100.00
19600;BME280;9947;57.722;12.012;2023-03-15T06:57:04;99673.16;;;1.03;100.00
19600;BME280;9947;57.722;12.012;2023-03-15T06:59:31;99683.31;;;1.12;100.00
19600;BME280;9947;57.722;12.012;2023-03-15T07:02:01;99683.19;;;0.98;100.00
19600;BME280;9947;57.722;12.012;2023-03-15T07:04:28;99678.59;;;1.17;100.00
19600;BME280;9947;57.722;12.012;2023-03-15T07:06:55;99686.69;;;1.31;100.00
19600;BME280;9947;57.722;12.012;2023-03-15T07:09:22;99677.16;;;1.59;100.00
19600;BME280;9947;57.722;12.012;2023-03-15T07:11:49;99691.75;;;1.83;100.00
19600;BME280;9947;57.722;12.012;2023-03-15T07:14:19;99692.03;;;1.63;100.00
19600;BME280;9947;57.722;12.012;2023-03-15T07:16:47;99698.88;;;1.82;100.00
19600;BME280;9947;57.722;12.012;2023-03-15T07:19:15;99697.69;;;1.72;100.00
19600;BME280;9947;57.722;12.012;2023-03-15T07:21:42;99711.34;;;1.50;100.00
19600;BME280;9947;57.722;12.012;2023-03-15T07:24:09;99721.72;;;1.55;100.00
19600;BME280;9947;57.722;12.012;2023-03-15T07:26:36;99723.03;;;1.48;100.00
19600;BME280;9947;57.722;12.012;2023-03-15T07:29:12;99733.16;;;1.73;100.00
19600;BME280;9947;57.722;12.012;2023-03-15T07:31:38;99737.47;;;1.91;100.00
19600;BME280;9947;57.722;12.012;2023-03-15T07:34:05;99742.53;;;1.80;100.00
19600;BME280;9947;57.722;12.012;2023-03-15T07:36:34;99735.84;;;1.89;100.00
19600;BME280;9947;57.722;12.012;2023-03-15T07:39:01;99742.16;;;2.02;100.00
19600;BME280;9947;57.722;12.012;2023-03-15T07:41:29;99745.09;;;2.43;100.00
19600;BME280;9947;57.722;12.012;2023-03-15T07:43:56;99740.56;;;2.59;100.00
19600;BME280;9947;57.722;12.012;2023-03-15T07:46:23;99748.50;;;2.61;100.00
19600;BME280;9947;57.722;12.012;2023-03-15T07:48:50;99756.28;;;2.94;100.00
19600;BME280;9947;57.722;12.012;2023-03-15T07:51:23;99761.44;;;2.97;100.00
19600;BME280;9947;57.722;12.012;2023-03-15T07:53:52;99756.09;;;3.11;100.00
19600;BME280;9947;57.722;12.012;2023-03-15T07:56:19;99753.59;;;3.36;100.00
19600;BME280;9947;57.722;12.012;2023-03-15T07:58:46;99752.66;;;3.37;100.00
19600;BME280;9947;57.722;12.012;2023-03-15T08:01:13;99771.19;;;3.26;100.00
19600;BME280;9947;57.722;12.012;2023-03-15T08:03:40;99770.38;;;3.10;100.00
19600;BME280;9947;57.722;12.012;2023-03-15T08:06:07;99774.19;;;3.06;100.00
19600;BME280;9947;57.722;12.012;2023-03-15T08:08:40;99775.47;;;3.15;100.00
19600;BME280;9947;57.722;12.012;2023-03-15T08:11:09;99780.97;;;2.97;100.00
19600;BME280;9947;57.722;12.012;2023-03-15T08:13:36;99785.06;;;2.89;100.00
19600;BME280;9947;57.722;12.012;2023-03-15T08:16:03;99790.78;;;2.97;100.00
19600;BME280;9947;57.722;12.012;2023-03-15T08:18:30;99797.38;;;2.91;100.00
19600;BME280;9947;57.722;12.012;2023-03-15T08:20:57;99805.84;;;2.98;100.00
19600;BME280;9947;57.722;12.012;2023-03-15T08:23:24;99801.47;;;2.97;100.00
19600;BME280;9947;57.722;12.012;2023-03-15T08:25:51;99797.66;;;3.01;100.00
19600;BME280;9947;57.722;12.012;2023-03-15T08:28:20;99796.91;;;2.99;100.00
19600;BME280;9947;57.722;12.012;2023-03-15T08:30:47;99804.63;;;3.03;100.00
19600;BME280;9947;57.722;12.012;2023-03-15T08:33:14;99809.06;;;3.19;100.00
19600;BME280;9947;57.722;12.012;2023-03-15T08:35:41;99814.34;;;3.04;100.00
19600;BME280;9947;57.722;12.012;2023-03-15T08:38:08;99813.72;;;3.15;100.00
19600;BME280;9947;57.722;12.012;2023-03-15T08:40:35;99817.25;;;3.30;100.00
19600;BME280;9947;57.722;12.012;2023-03-15T08:43:03;99821.53;;;3.32;100.00
19600;BME280;9947;57.722;12.012;2023-03-15T08:45:31;99820.06;;;2.98;100.00
19600;BME280;9947;57.722;12.012;2023-03-15T08:47:59;99825.63;;;2.79;100.00
19600;BME280;9947;57.722;12.012;2023-03-15T08:50:27;99834.56;;;2.64;100.00
19600;BME280;9947;57.722;12.012;2023-03-15T08:52:56;99841.09;;;2.59;100.00
19600;BME280;9947;57.722;12.012;2023-03-15T08:55:30;99853.06;;;2.67;100.00
19600;BME280;9947;57.722;12.012;2023-03-15T08:57:56;99863.50;;;2.86;100.00
19600;BME280;9947;57.722;12.012;2023-03-15T09:00:25;99859.56;;;3.07;100.00
19600;BME280;9947;57.722;12.012;2023-03-15T09:02:54;99860.50;;;3.51;100.00
19600;BME280;9947;57.722;12.012;2023-03-15T09:05:22;99864.91;;;3.66;100.00
19600;BME280;9947;57.722;12.012;2023-03-15T09:07:50;99866.41;;;3.98;100.00
19600;BME280;9947;57.722;12.012;2023-03-15T09:10:19;99868.22;;;3.98;100.00
19600;BME280;9947;57.722;12.012;2023-03-15T09:12:47;99869.56;;;3.91;100.00
19600;BME280;9947;57.722;12.012;2023-03-15T09:15:15;99875.78;;;3.77;100.00
19600;BME280;9947;57.722;12.012;2023-03-15T09:17:44;99878.28;;;3.66;100.00
19600;BME280;9947;57.722;12.012;2023-03-15T09:20:12;99885.03;;;3.86;100.00
19600;BME280;9947;57.722;12.012;2023-03-15T09:22:52;99887.81;;;3.98;100.00
19600;BME280;9947;57.722;12.012;2023-03-15T09:25:19;99891.81;;;3.91;100.00
19600;BME280;9947;57.722;12.012;2023-03-15T09:27:47;99896.59;;;4.00;100.00
19600;BME280;9947;57.722;12.012;2023-03-15T09:30:16;99896.75;;;4.12;100.00
19600;BME280;9947;57.722;12.012;2023-03-15T09:32:43;99892.25;;;4.12;100.00
19600;BME280;9947;57.722;12.012;2023-03-15T09:35:14;99896.66;;;4.13;100.00
19600;BME280;9947;57.722;12.012;2023-03-15T09:37:50;99913.56;;;3.85;100.00
19600;BME280;9947;57.722;12.012;2023-03-15T09:40:25;99922.19;;;3.76;100.00
19600;BME280;9947;57.722;12.012;2023-03-15T09:42:58;99926.38;;;4.09;100.00
19600;BME280;9947;57.722;12.012;2023-03-15T09:45:34;99932.22;;;4.01;100.00
19600;BME280;9947;57.722;12.012;2023-03-15T09:48:08;99932.88;;;4.05;100.00
19600;BME280;9947;57.722;12.012;2023-03-15T09:50:43;99934.69;;;4.04;100.00
19600;BME280;9947;57.722;12.012;2023-03-15T09:53:15;99938.31;;;4.17;100.00
19600;BME280;9947;57.722;12.012;2023-03-15T09:55:54;99940.50;;;4.11;100.00
19600;BME280;9947;57.722;12.012;2023-03-15T09:58:24;99947.66;;;4.10;100.00
19600;BME280;9947;57.722;12.012;2023-03-15T10:00:56;99949.00;;;4.31;100.00
19600;BME280;9947;57.722;12.012;2023-03-15T10:03:30;99948.13;;;4.31;100.00
19600;BME280;9947;57.722;12.012;2023-03-15T10:06:01;99949.59;;;4.22;100.00
19600;BME280;9947;57.722;12.012;2023-03-15T10:08:29;99958.75;;;4.32;100.00
19600;BME280;9947;57.722;12.012;2023-03-15T10:11:03;99956.19;;;4.02;100.00
19600;BME280;9947;57.722;12.012;2023-03-15T10:13:45;99958.56;;;4.07;100.00
19600;BME280;9947;57.722;12.012;2023-03-15T10:16:26;99961.91;;;3.96;100.00
19600;BME280;9947;57.722;12.012;2023-03-15T10:19:05;99968.88;;;3.99;100.00
19600;BME280;9947;57.722;12.012;2023-03-15T10:21:50;99963.63;;;4.26;100.00
19600;BME280;9947;57.722;12.012;2023-03-15T10:25:10;99964.03;;;4.20;100.00
19600;BME280;9947;57.722;12.012;2023-03-15T10:27:21;99971.72;;;4.39;100.00
19600;BME280;9947;57.722;12.012;2023-03-15T10:29:50;99979.66;;;4.40;100.00
19600;BME280;9947;57.722;12.012;2023-03-15T10:32:24;99980.28;;;4.17;100.00
19600;BME280;9947;57.722;12.012;2023-03-15T10:34:55;99983.28;;;3.82;100.00
19600;BME280;9947;57.722;12.012;2023-03-15T10:37:27;99994.94;;;3.81;100.00
19600;BME280;9947;57.722;12.012;2023-03-15T10:39:57;100004.59;;;3.98;100.00
19600;BME280;9947;57.722;12.012;2023-03-15T10:42:41;100006.72;;;4.07;100.00
19600;BME280;9947;57.722;12.012;2023-03-15T10:45:29;100006.03;;;4.03;100.00
19600;BME280;9947;57.722;12.012;2023-03-15T10:48:07;100017.97;;;3.98;100.00
19600;BME280;9947;57.722;12.012;2023-03-15T10:50:37;100033.00;;;4.29;100.00
19600;BME280;9947;57.722;12.012;2023-03-15T10:53:17;100024.47;;;4.65;100.00
19600;BME280;9947;57.722;12.012;2023-03-15T10:56:01;100031.22;;;4.99;100.00
19600;BME280;9947;57.722;12.012;2023-03-15T10:58:39;100029.44;;;5.12;100.00
19600;BME280;9947;57.722;12.012;2023-03-15T11:01:13;100028.78;;;5.36;100.00
19600;BME280;9947;57.722;12.012;2023-03-15T11:03:59;100024.34;;;5.22;100.00
19600;BME280;9947;57.722;12.012;2023-03-15T11:06:40;100031.22;;;5.26;100.00
19600;BME280;9947;57.722;12.012;2023-03-15T11:09:12;100041.63;;;5.31;100.00
19600;BME280;9947;57.722;12.012;2023-03-15T11:11:56;100045.00;;;5.20;100.00
19600;BME280;9947;57.722;12.012;2023-03-15T11:14:24;100048.41;;;5.09;100.00
19600;BME280;9947;57.722;12.012;2023-03-15T11:16:53;100048.56;;;5.20;100.00
19600;BME280;9947;57.722;12.012;2023-03-15T11:19:22;100060.53;;;4.74;100.00
19600;BME280;9947;57.722;12.012;2023-03-15T11:21:51;100074.69;;;4.47;100.00
19600;BME280;9947;57.722;12.012;2023-03-15T11:24:24;100080.16;;;4.16;100.00
19600;BME280;9947;57.722;12.012;2023-03-15T11:26:52;100074.06;;;4.14;100.00
19600;BME280;9947;57.722;12.012;2023-03-15T11:29:24;100070.78;;;3.94;100.00
19600;BME280;9947;57.722;12.012;2023-03-15T11:31:53;100077.00;;;3.95;100.00
19600;BME280;9947;57.722;12.012;2023-03-15T11:34:26;100076.72;;;3.99;100.00
19600;BME280;9947;57.722;12.012;2023-03-15T11:37:10;100085.13;;;4.08;100.00
19600;BME280;9947;57.722;12.012;2023-03-15T11:39:53;100087.44;;;4.14;100.00
19600;BME280;9947;57.722;12.012;2023-03-15T11:42:27;100090.09;;;3.99;100.00
19600;BME280;9947;57.722;12.012;2023-03-15T11:45:00;100104.84;;;4.21;100.00
19600;BME280;9947;57.722;12.012;2023-03-15T11:47:40;100092.34;;;4.21;100.00
19600;BME280;9947;57.722;12.012;2023-03-15T11:50:11;100101.59;;;4.30;100.00
19600;BME280;9947;57.722;12.012;2023-03-15T11:52:39;100114.94;;;4.46;100.00
19600;BME280;9947;57.722;12.012;2023-03-15T11:55:16;100115.78;;;4.46;100.00
19600;BME280;9947;57.722;12.012;2023-03-15T11:57:45;100112.25;;;4.74;100.00
19600;BME280;9947;57.722;12.012;2023-03-15T12:06:10;100128.16;;;4.19;100.00
19600;BME280;9947;57.722;12.012;2023-03-15T12:08:44;100141.69;;;4.16;100.00
19600;BME280;9947;57.722;12.012;2023-03-15T12:11:37;100128.03;;;4.06;100.00
19600;BME280;9947;57.722;12.012;2023-03-15T12:14:27;100135.56;;;3.99;100.00
19600;BME280;9947;57.722;12.012;2023-03-15T12:17:35;100135.53;;;4.29;100.00
19600;BME280;9947;57.722;12.012;2023-03-15T12:20:07;100134.97;;;4.39;100.00
19600;BME280;9947;57.722;12.012;2023-03-15T12:22:41;100128.09;;;4.34;100.00
19600;BME280;9947;57.722;12.012;2023-03-15T12:25:13;100137.88;;;4.50;100.00
19600;BME280;9947;57.722;12.012;2023-03-15T12:27:46;100145.59;;;4.54;100.00
19600;BME280;9947;57.722;12.012;2023-03-15T12:30:22;100136.19;;;4.33;100.00
19600;BME280;9947;57.722;12.012;2023-03-15T12:32:51;100139.69;;;4.49;100.00
19600;BME280;9947;57.722;12.012;2023-03-15T12:35:21;100144.63;;;4.41;100.00
19600;BME280;9947;57.722;12.012;2023-03-15T12:37:52;100146.97;;;4.76;100.00
19600;BME280;9947;57.722;12.012;2023-03-15T12:40:39;100151.00;;;4.69;100.00
19600;BME280;9947;57.722;12.012;2023-03-15T12:43:36;100158.53;;;4.18;100.00
19600;BME280;9947;57.722;12.012;2023-03-15T12:46:04;100159.06;;;4.09;100.00
19600;BME280;9947;57.722;12.012;2023-03-15T12:48:31;100162.47;;;4.26;100.00
19600;BME280;9947;57.722;12.012;2023-03-15T12:51:11;100173.47;;;4.36;100.00
19600;BME280;9947;57.722;12.012;2023-03-15T12:53:58;100174.56;;;4.62;100.00
19600;BME280;9947;57.722;12.012;2023-03-15T12:56:33;100166.44;;;4.49;100.00
19600;BME280;9947;57.722;12.012;2023-03-15T12:59:09;100169.50;;;4.57;100.00
19600;BME280;9947;57.722;12.012;2023-03-15T13:01:39;100179.00;;;4.91;100.00
19600;BME280;9947;57.722;12.012;2023-03-15T13:04:09;100179.09;;;5.04;100.00
19600;BME280;9947;57.722;12.012;2023-03-15T13:06:53;100186.78;;;4.96;100.00
19600;BME280;9947;57.722;12.012;2023-03-15T13:09:35;100194.31;;;5.04;100.00
19600;BME280;9947;57.722;12.012;2023-03-15T13:12:09;100197.81;;;4.61;100.00
19600;BME280;9947;57.722;12.012;2023-03-15T13:14:47;100199.72;;;4.59;100.00
19600;BME280;9947;57.722;12.012;2023-03-15T13:17:34;100205.25;;;4.56;100.00
19600;BME280;9947;57.722;12.012;2023-03-15T13:20:28;100220.00;;;4.33;100.00